sensor_id;sensor_type;location;lat;lon;timestamp;pressure;altitude;pressure_sealevel;temperature;humidity
12624;BME280;6377;42.836;23.998;2023-03-03T00:02:07;95824.16;;;4.32;100.00
12624;BME280;6377;42.836;23.998;2023-03-03T00:04:34;95827.91;;;4.48;100.00
12624;BME280;6377;42.836;23.998;2023-03-03T00:07:01;95818.53;;;4.56;100.00
12624;BME280;6377;42.836;23.998;2023-03-03T00:09:28;95721.50;;;4.00;100.00
12624;BME280;6377;42.836;23.998;2023-03-03T00:11:57;95808.31;;;4.52;100.00
12624;BME280;6377;42.836;23.998;2023-03-03T00:14:29;95754.72;;;4.28;100.00
12624;BME280;6377;42.836;23.998;2023-03-03T00:16:57;95811.78;;;4.63;100.00
12624;BME280;6377;42.836;23.998;2023-03-03T00:19:26;95804.03;;;4.61;100.00
12624;BME280;6377;42.836;23.998;2023-03-03T00:21:56;95782.84;;;4.45;100.00
12624;BME280;6377;42.836;23.998;2023-03-03T00:24:27;95577.34;;;3.16;100.00
12624;BME280;6377;42.836;23.998;2023-03-03T00:27:17;95804.63;;;4.45;100.00
12624;BME280;6377;42.836;23.998;2023-03-03T00:29:52;95807.91;;;4.38;100.00
12624;BME280;6377;42.836;23.998;2023-03-03T00:32:24;95689.53;;;3.58;100.00
12624;BME280;6377;42.836;23.998;2023-03-03T00:34:53;95667.50;;;3.51;100.00
12624;BME280;6377;42.836;23.998;2023-03-03T00:37:29;95752.09;;;4.18;100.00
12624;BME280;6377;42.836;23.998;2023-03-03T00:40:02;95786.69;;;4.41;100.00
12624;BME280;6377;42.836;23.998;2023-03-03T00:42:35;95792.06;;;4.39;100.00
12624;BME280;6377;42.836;23.998;2023-03-03T00:45:29;95771.00;;;4.31;100.00
12624;BME280;6377;42.836;23.998;2023-03-03T00:47:58;95755.56;;;4.28;100.00
12624;BME280;6377;42.836;23.998;2023-03-03T00:50:33;95778.41;;;4.55;100.00
12624;BME280;6377;42.836;23.998;2023-03-03T00:53:05;95780.63;;;4.60;100.00
12624;BME280;6377;42.836;23.998;2023-03-03T00:55:34;95778.28;;;4.57;100.00
12624;BME280;6377;42.836;23.998;2023-03-03T00:58:02;95775.38;;;4.50;100.00
12624;BME280;6377;42.836;23.998;2023-03-03T01:00:31;95776.47;;;4.38;100.00
12624;BME280;6377;42.836;23.998;2023-03-03T01:03:01;95771.00;;;4.31;100.00
12624;BME280;6377;42.836;23.998;2023-03-03T01:05:29;95736.66;;;4.15;100.00
12624;BME280;6377;42.836;23.998;2023-03-03T01:07:56;95792.59;;;4.24;100.00
12624;BME280;6377;42.836;23.998;2023-03-03T01:10:23;95661.03;;;3.45;100.00
12624;BME280;6377;42.836;23.998;2023-03-03T01:12:51;95764.91;;;4.21;100.00
12624;BME280;6377;42.836;23.998;2023-03-03T01:15:18;95757.06;;;4.21;100.00
12624;BME280;6377;42.836;23.998;2023-03-03T01:17:46;95760.66;;;4.11;100.00
12624;BME280;6377;42.836;23.998;2023-03-03T01:20:14;95756.09;;;4.22;100.00
12624;BME280;6377;42.836;23.998;2023-03-03T01:22:42;95720.53;;;4.01;100.00
12624;BME280;6377;42.836;23.998;2023-03-03T01:25:09;95689.28;;;3.80;100.00
12624;BME280;6377;42.836;23.998;2023-03-03T01:27:37;95742.31;;;4.20;100.00
12624;BME280;6377;42.836;23.998;2023-03-03T01:30:05;95753.63;;;4.30;100.00
12624;BME280;6377;42.836;23.998;2023-03-03T01:32:33;95701.00;;;3.95;100.00
12624;BME280;6377;42.836;23.998;2023-03-03T01:35:02;95699.47;;;3.92;100.00
12624;BME280;6377;42.836;23.998;2023-03-03T01:37:29;95718.19;;;3.97;100.00
12624;BME280;6377;42.836;23.998;2023-03-03T01:39:56;95750.72;;;4.14;100.00
12624;BME280;6377;42.836;23.998;2023-03-03T01:42:24;95751.53;;;4.15;100.00
12624;BME280;6377;42.836;23.998;2023-03-03T01:45:15;95705.69;;;4.01;100.00
12624;BME280;6377;42.836;23.998;2023-03-03T01:47:46;95741.06;;;4.24;100.00
12624;BME280;6377;42.836;23.998;2023-03-03T01:50:25;95750.44;;;4.36;100.00
12624;BME280;6377;42.836;23.998;2023-03-03T01:52:54;95593.75;;;3.37;100.00
12624;BME280;6377;42.836;23.998;2023-03-03T01:55:28;95739.53;;;4.41;100.00
12624;BME280;6377;42.836;23.998;2023-03-03T01:58:00;95748.50;;;4.38;100.00
12624;BME280;6377;42.836;23.998;2023-03-03T02:00:30;95739.28;;;4.34;100.00
12624;BME280;6377;42.836;23.998;2023-03-03T02:02:58;95739.56;;;4.31;100.00
12624;BME280;6377;42.836;23.998;2023-03-03T02:05:27;95735.69;;;4.35;100.00
12624;BME280;6377;42.836;23.998;2023-03-03T02:07:54;95742.19;;;4.31;100.00
12624;BME280;6377;42.836;23.998;2023-03-03T02:10:22;95749.50;;;4.28;100.00
12624;BME280;6377;42.836;23.998;2023-03-03T02:12:51;95739.81;;;4.09;100.00
12624;BME280;6377;42.836;23.998;2023-03-03T02:15:21;95666.00;;;3.67;100.00
12624;BME280;6377;42.836;23.998;2023-03-03T02:17:51;95740.13;;;4.16;100.00
12624;BME280;6377;42.836;23.998;2023-03-03T02:20:34;95736.66;;;4.25;100.00
12624;BME280;6377;42.836;23.998;2023-03-03T02:23:07;95720.69;;;4.09;100.00
12624;BME280;6377;42.836;23.998;2023-03-03T02:25:45;95743.28;;;4.29;100.00
12624;BME280;6377;42.836;23.998;2023-03-03T02:28:17;95733.91;;;4.36;100.00
12624;BME280;6377;42.836;23.998;2023-03-03T02:30:44;95733.63;;;4.39;100.00
12624;BME280;6377;42.836;23.998;2023-03-03T02:33:11;95730.47;;;4.45;100.00
12624;BME280;6377;42.836;23.998;2023-03-03T02:35:39;95725.50;;;4.32;100.00
12624;BME280;6377;42.836;23.998;2023-03-03T02:38:17;95721.91;;;4.43;100.00
12624;BME280;6377;42.836;23.998;2023-03-03T02:40:54;95736.81;;;4.52;100.00
12624;BME280;6377;42.836;23.998;2023-03-03T02:43:28;95730.56;;;4.43;100.00
12624;BME280;6377;42.836;23.998;2023-03-03T02:45:58;95736.13;;;4.31;100.00
12624;BME280;6377;42.836;23.998;2023-03-03T02:48:26;95730.34;;;4.27;100.00
12624;BME280;6377;42.836;23.998;2023-03-03T02:50:53;95732.94;;;4.27;100.00
12624;BME280;6377;42.836;23.998;2023-03-03T02:53:20;95700.56;;;4.09;100.00
12624;BME280;6377;42.836;23.998;2023-03-03T02:55:47;95731.31;;;4.17;100.00
12624;BME280;6377;42.836;23.998;2023-03-03T02:58:14;95701.00;;;3.95;100.00
12624;BME280;6377;42.836;23.998;2023-03-03T03:00:43;95732.94;;;4.18;100.00
12624;BME280;6377;42.836;23.998;2023-03-03T03:03:12;95728.13;;;4.13;100.00
12624;BME280;6377;42.836;23.998;2023-03-03T03:05:39;95728.41;;;4.20;100.00
12624;BME280;6377;42.836;23.998;2023-03-03T03:08:06;95665.59;;;3.81;100.00
12624;BME280;6377;42.836;23.998;2023-03-03T03:10:34;95678.94;;;3.88;100.00
12624;BME280;6377;42.836;23.998;2023-03-03T03:13:02;95726.75;;;4.28;100.00
12624;BME280;6377;42.836;23.998;2023-03-03T03:15:29;95630.91;;;3.70;100.00
12624;BME280;6377;42.836;23.998;2023-03-03T03:17:57;95695.34;;;4.28;100.00
12624;BME280;6377;42.836;23.998;2023-03-03T03:20:25;95728.22;;;4.50;100.00
12624;BME280;6377;42.836;23.998;2023-03-03T03:22:52;95723.56;;;4.53;100.00
12624;BME280;6377;42.836;23.998;2023-03-03T03:25:19;95720.22;;;4.61;100.00
12624;BME280;6377;42.836;23.998;2023-03-03T03:27:46;95721.31;;;4.68;100.00
12624;BME280;6377;42.836;23.998;2023-03-03T03:30:14;95713.19;;;4.71;100.00
12624;BME280;6377;42.836;23.998;2023-03-03T03:32:41;95690.19;;;4.56;100.00
12624;BME280;6377;42.836;23.998;2023-03-03T03:35:09;95706.16;;;4.72;100.00
12624;BME280;6377;42.836;23.998;2023-03-03T03:37:38;95708.94;;;4.61;100.00
12624;BME280;6377;42.836;23.998;2023-03-03T03:40:05;95685.78;;;4.46;100.00
12624;BME280;6377;42.836;23.998;2023-03-03T03:42:33;95708.50;;;4.56;100.00
12624;BME280;6377;42.836;23.998;2023-03-03T03:45:00;95708.66;;;4.54;100.00
12624;BME280;6377;42.836;23.998;2023-03-03T03:47:27;95697.06;;;4.57;100.00
12624;BME280;6377;42.836;23.998;2023-03-03T03:49:54;95657.59;;;4.31;100.00
12624;BME280;6377;42.836;23.998;2023-03-03T03:52:23;95698.03;;;4.56;100.00
12624;BME280;6377;42.836;23.998;2023-03-03T03:54:50;95691.03;;;4.46;100.00
12624;BME280;6377;42.836;23.998;2023-03-03T03:57:17;95691.84;;;4.47;100.00
12624;BME280;6377;42.836;23.998;2023-03-03T03:59:45;95643.94;;;4.18;100.00
12624;BME280;6377;42.836;23.998;2023-03-03T04:02:12;95622.59;;;4.13;100.00
12624;BME280;6377;42.836;23.998;2023-03-03T04:04:39;95693.22;;;4.51;100.00
12624;BME280;6377;42.836;23.998;2023-03-03T04:07:06;95685.78;;;4.46;100.00
12624;BME280;6377;42.836;23.998;2023-03-03T04:09:35;95534.69;;;3.45;100.00
12624;BME280;6377;42.836;23.998;2023-03-03T04:12:03;95686.94;;;4.34;100.00
12624;BME280;6377;42.836;23.998;2023-03-03T04:14:30;95677.41;;;4.24;100.00
12624;BME280;6377;42.836;23.998;2023-03-03T04:16:57;95689.81;;;4.31;100.00
12624;BME280;6377;42.836;23.998;2023-03-03T04:19:24;95692.44;;;4.31;100.00
12624;BME280;6377;42.836;23.998;2023-03-03T04:21:51;95632.56;;;3.90;100.00
12624;BME280;6377;42.836;23.998;2023-03-03T04:24:18;95660.63;;;3.97;100.00
12624;BME280;6377;42.836;23.998;2023-03-03T04:26:47;95685.28;;;4.14;100.00
12624;BME280;6377;42.836;23.998;2023-03-03T04:29:14;95670.81;;;4.01;100.00
12624;BME280;6377;42.836;23.998;2023-03-03T04:31:41;95687.88;;;4.14;100.00
12624;BME280;6377;42.836;23.998;2023-03-03T04:34:08;95679.50;;;4.11;100.00
12624;BME280;6377;42.836;23.998;2023-03-03T04:36:35;95680.88;;;4.05;100.00
12624;BME280;6377;42.836;23.998;2023-03-03T04:39:03;95633.22;;;3.73;100.00
12624;BME280;6377;42.836;23.998;2023-03-03T04:41:30;95668.38;;;3.99;100.00
12624;BME280;6377;42.836;23.998;2023-03-03T04:43:59;95640.94;;;3.74;100.00
12624;BME280;6377;42.836;23.998;2023-03-03T04:46:26;95677.84;;;4.00;100.00
12624;BME280;6377;42.836;23.998;2023-03-03T04:48:53;95599.50;;;3.31;100.00
12624;BME280;6377;42.836;23.998;2023-03-03T04:51:21;95680.88;;;4.05;100.00
12624;BME280;6377;42.836;23.998;2023-03-03T04:53:48;95509.09;;;2.81;100.00
12624;BME280;6377;42.836;23.998;2023-03-03T04:56:17;95670.41;;;3.86;100.00
12624;BME280;6377;42.836;23.998;2023-03-03T04:58:45;95571.03;;;3.28;100.00
12624;BME280;6377;42.836;23.998;2023-03-03T05:01:13;95680.75;;;3.97;100.00
12624;BME280;6377;42.836;23.998;2023-03-03T05:03:41;95631.03;;;3.68;100.00
12624;BME280;6377;42.836;23.998;2023-03-03T05:06:08;95595.50;;;3.47;100.00
12624;BME280;6377;42.836;23.998;2023-03-03T05:08:36;95577.63;;;3.32;100.00
12624;BME280;6377;42.836;23.998;2023-03-03T05:11:03;95675.50;;;3.97;100.00
12624;BME280;6377;42.836;23.998;2023-03-03T05:13:34;95594.53;;;3.38;100.00
12624;BME280;6377;42.836;23.998;2023-03-03T05:16:01;95632.41;;;3.53;100.00
12624;BME280;6377;42.836;23.998;2023-03-03T05:18:30;95507.03;;;2.75;100.00
12624;BME280;6377;42.836;23.998;2023-03-03T05:20:57;95542.41;;;3.08;100.00
12624;BME280;6377;42.836;23.998;2023-03-03T05:23:24;95667.38;;;3.90;100.00
12624;BME280;6377;42.836;23.998;2023-03-03T05:25:52;95687.34;;;4.01;100.00
12624;BME280;6377;42.836;23.998;2023-03-03T05:28:19;95689.69;;;4.04;100.00
12624;BME280;6377;42.836;23.998;2023-03-03T05:30:46;95695.50;;;4.08;100.00
12624;BME280;6377;42.836;23.998;2023-03-03T05:33:15;95473.22;;;2.83;100.00
12624;BME280;6377;42.836;23.998;2023-03-03T05:35:44;95707.47;;;4.20;100.00
12624;BME280;6377;42.836;23.998;2023-03-03T05:38:11;95600.88;;;3.64;100.00
12624;BME280;6377;42.836;23.998;2023-03-03T05:40:38;95682.81;;;4.22;100.00
12624;BME280;6377;42.836;23.998;2023-03-03T05:43:05;95662.81;;;4.12;100.00
12624;BME280;6377;42.836;23.998;2023-03-03T05:45:36;95630.22;;;3.87;100.00
12624;BME280;6377;42.836;23.998;2023-03-03T05:48:04;95636.13;;;3.60;100.00
12624;BME280;6377;42.836;23.998;2023-03-03T05:50:31;95687.63;;;3.98;100.00
12624;BME280;6377;42.836;23.998;2023-03-03T05:53:00;95690.91;;;3.90;100.00
12624;BME280;6377;42.836;23.998;2023-03-03T05:55:27;95695.06;;;3.93;100.00
12624;BME280;6377;42.836;23.998;2023-03-03T05:57:54;95632.09;;;3.47;100.00
12624;BME280;6377;42.836;23.998;2023-03-03T06:00:22;95694.25;;;4.02;100.00
12624;BME280;6377;42.836;23.998;2023-03-03T06:02:49;95627.75;;;3.66;100.00
12624;BME280;6377;42.836;23.998;2023-03-03T06:05:16;95576.63;;;3.14;100.00
12624;BME280;6377;42.836;23.998;2023-03-03T06:07:43;95700.69;;;4.17;100.00
12624;BME280;6377;42.836;23.998;2023-03-03T06:10:12;95698.34;;;4.24;100.00
12624;BME280;6377;42.836;23.998;2023-03-03T06:12:39;95674.00;;;4.04;100.00
12624;BME280;6377;42.836;23.998;2023-03-03T06:15:07;95615.06;;;3.71;100.00
12624;BME280;6377;42.836;23.998;2023-03-03T06:17:35;95692.72;;;4.28;100.00
12624;BME280;6377;42.836;23.998;2023-03-03T06:20:02;95683.59;;;4.23;100.00
12624;BME280;6377;42.836;23.998;2023-03-03T06:22:30;95697.13;;;4.28;100.00
12624;BME280;6377;42.836;23.998;2023-03-03T06:24:57;95597.19;;;3.67;100.00
12624;BME280;6377;42.836;23.998;2023-03-03T06:27:26;95705.09;;;4.36;100.00
12624;BME280;6377;42.836;23.998;2023-03-03T06:29:53;95698.34;;;4.33;100.00
12624;BME280;6377;42.836;23.998;2023-03-03T06:32:20;95705.66;;;4.20;100.00
12624;BME280;6377;42.836;23.998;2023-03-03T06:34:48;95698.09;;;4.17;100.00
12624;BME280;6377;42.836;23.998;2023-03-03T06:37:15;95700.69;;;4.27;100.00
12624;BME280;6377;42.836;23.998;2023-03-03T06:39:42;95704.94;;;4.37;100.00
12624;BME280;6377;42.836;23.998;2023-03-03T06:42:09;95698.63;;;4.40;100.00
12624;BME280;6377;42.836;23.998;2023-03-03T06:44:38;95707.16;;;4.32;100.00
12624;BME280;6377;42.836;23.998;2023-03-03T06:47:05;95697.25;;;4.36;100.00
12624;BME280;6377;42.836;23.998;2023-03-03T06:49:32;95700.16;;;4.42;100.00
12624;BME280;6377;42.836;23.998;2023-03-03T06:52:04;95700.94;;;4.62;100.00
12624;BME280;6377;42.836;23.998;2023-03-03T06:54:35;95704.22;;;4.64;100.00
12624;BME280;6377;42.836;23.998;2023-03-03T06:57:12;95706.59;;;4.48;100.00
12624;BME280;6377;42.836;23.998;2023-03-03T06:59:42;95675.47;;;4.35;100.00
12624;BME280;6377;42.836;23.998;2023-03-03T07:02:14;95702.41;;;4.74;100.00
12624;BME280;6377;42.836;23.998;2023-03-03T07:04:43;95687.53;;;4.65;100.00
12624;BME280;6377;42.836;23.998;2023-03-03T07:07:16;95706.25;;;4.89;100.00
12624;BME280;6377;42.836;23.998;2023-03-03T07:09:46;95700.59;;;4.84;100.00
12624;BME280;6377;42.836;23.998;2023-03-03T07:12:15;95701.00;;;4.89;100.00
12624;BME280;6377;42.836;23.998;2023-03-03T07:14:46;95679.94;;;4.81;100.00
12624;BME280;6377;42.836;23.998;2023-03-03T07:17:17;95693.88;;;5.09;100.00
12624;BME280;6377;42.836;23.998;2023-03-03T07:19:46;95698.41;;;5.17;100.00
12624;BME280;6377;42.836;23.998;2023-03-03T07:22:16;95657.38;;;4.98;100.00
12624;BME280;6377;42.836;23.998;2023-03-03T07:24:45;95695.44;;;5.29;100.00
12624;BME280;6377;42.836;23.998;2023-03-03T07:27:17;95696.16;;;5.31;100.00
12624;BME280;6377;42.836;23.998;2023-03-03T07:29:48;95693.53;;;5.31;100.00
12624;BME280;6377;42.836;23.998;2023-03-03T07:32:25;95658.97;;;5.08;100.00
12624;BME280;6377;42.836;23.998;2023-03-03T07:34:55;95689.03;;;5.41;100.00
12624;BME280;6377;42.836;23.998;2023-03-03T07:37:29;95684.69;;;5.50;100.00
12624;BME280;6377;42.836;23.998;2023-03-03T07:39:58;95666.94;;;5.44;100.00
12624;BME280;6377;42.836;23.998;2023-03-03T07:42:29;95625.56;;;5.38;100.00
12624;BME280;6377;42.836;23.998;2023-03-03T07:45:22;95635.28;;;5.28;100.00
12624;BME280;6377;42.836;23.998;2023-03-03T07:47:50;95681.41;;;5.48;100.00
12624;BME280;6377;42.836;23.998;2023-03-03T07:50:19;95678.84;;;5.38;100.00
12624;BME280;6377;42.836;23.998;2023-03-03T07:52:54;95695.16;;;5.32;100.00
12624;BME280;6377;42.836;23.998;2023-03-03T07:55:33;95660.59;;;5.19;100.00
12624;BME280;6377;42.836;23.998;2023-03-03T07:58:18;95642.75;;;5.23;100.00
12624;BME280;6377;42.836;23.998;2023-03-03T08:03:55;95681.13;;;5.51;100.00
12624;BME280;6377;42.836;23.998;2023-03-03T08:06:44;95673.91;;;5.53;100.00
12624;BME280;6377;42.836;23.998;2023-03-03T08:09:35;95674.16;;;5.59;100.00
12624;BME280;6377;42.836;23.998;2023-03-03T08:12:37;95665.47;;;5.59;100.00
12624;BME280;6377;42.836;23.998;2023-03-03T08:15:23;95670.16;;;5.55;100.00
12624;BME280;6377;42.836;23.998;2023-03-03T08:17:52;95668.38;;;5.56;100.00
12624;BME280;6377;42.836;23.998;2023-03-03T08:20:47;95670.25;;;5.46;100.00
12624;BME280;6377;42.836;23.998;2023-03-03T08:23:16;95665.13;;;5.44;100.00
12624;BME280;6377;42.836;23.998;2023-03-03T08:25:44;95666.09;;;5.43;100.00
12624;BME280;6377;42.836;23.998;2023-03-03T08:28:11;95660.56;;;5.46;100.00
12624;BME280;6377;42.836;23.998;2023-03-03T08:30:39;95604.22;;;5.05;100.00
12624;BME280;6377;42.836;23.998;2023-03-03T08:33:06;95641.25;;;5.20;100.00
12624;BME280;6377;42.836;23.998;2023-03-03T08:35:33;95656.06;;;5.39;100.00
12624;BME280;6377;42.836;23.998;2023-03-03T08:38:03;95660.84;;;5.43;100.00
12624;BME280;6377;42.836;23.998;2023-03-03T08:40:31;95632.88;;;5.34;100.00
12624;BME280;6377;42.836;23.998;2023-03-03T08:42:58;95629.66;;;5.40;100.00
12624;BME280;6377;42.836;23.998;2023-03-03T08:45:26;95650.25;;;5.62;100.00
12624;BME280;6377;42.836;23.998;2023-03-03T08:47:53;95655.44;;;5.72;100.00
12624;BME280;6377;42.836;23.998;2023-03-03T08:50:20;95650.88;;;5.92;100.00
12624;BME280;6377;42.836;23.998;2023-03-03T08:52:48;95645.28;;;5.87;100.00
12624;BME280;6377;42.836;23.998;2023-03-03T08:55:17;95647.66;;;5.98;100.00
12624;BME280;6377;42.836;23.998;2023-03-03T08:57:45;95649.38;;;6.07;100.00
12624;BME280;6377;42.836;23.998;2023-03-03T09:00:14;95644.28;;;6.05;100.00
12624;BME280;6377;42.836;23.998;2023-03-03T09:02:42;95646.22;;;6.03;100.00
12624;BME280;6377;42.836;23.998;2023-03-03T09:05:10;95631.44;;;5.85;100.00
12624;BME280;6377;42.836;23.998;2023-03-03T09:07:38;95632.81;;;5.89;100.00
12624;BME280;6377;42.836;23.998;2023-03-03T09:10:06;95647.28;;;6.10;100.00
12624;BME280;6377;42.836;23.998;2023-03-03T09:12:38;95657.69;;;6.20;100.00
12624;BME280;6377;42.836;23.998;2023-03-03T09:15:18;95646.88;;;6.23;100.00
12624;BME280;6377;42.836;23.998;2023-03-03T09:17:47;95633.38;;;6.18;100.00
12624;BME280;6377;42.836;23.998;2023-03-03T09:20:36;95589.88;;;6.15;100.00
12624;BME280;6377;42.836;23.998;2023-03-03T09:23:29;95643.25;;;6.67;100.00
12624;BME280;6377;42.836;23.998;2023-03-03T09:25:57;95641.59;;;6.92;100.00
12624;BME280;6377;42.836;23.998;2023-03-03T09:28:28;95608.31;;;6.75;100.00
12624;BME280;6377;42.836;23.998;2023-03-03T09:30:58;95640.41;;;6.87;100.00
12624;BME280;6377;42.836;23.998;2023-03-03T09:33:28;95640.97;;;6.98;100.00
12624;BME280;6377;42.836;23.998;2023-03-03T09:36:03;95616.84;;;6.69;100.00
12624;BME280;6377;42.836;23.998;2023-03-03T09:38:39;95615.13;;;6.94;100.00
12624;BME280;6377;42.836;23.998;2023-03-03T09:41:22;95636.81;;;6.96;100.00
12624;BME280;6377;42.836;23.998;2023-03-03T09:44:09;95634.06;;;6.97;100.00
12624;BME280;6377;42.836;23.998;2023-03-03T09:46:51;95641.63;;;7.00;100.00
12624;BME280;6377;42.836;23.998;2023-03-03T09:49:30;95519.38;;;6.29;100.00
12624;BME280;6377;42.836;23.998;2023-03-03T09:52:07;95620.09;;;7.05;100.00
12624;BME280;6377;42.836;23.998;2023-03-03T09:54:48;95633.03;;;7.24;100.00
12624;BME280;6377;42.836;23.998;2023-03-03T09:57:23;95635.03;;;7.38;100.00
12624;BME280;6377;42.836;23.998;2023-03-03T10:00:13;95640.00;;;7.41;100.00
12624;BME280;6377;42.836;23.998;2023-03-03T10:02:59;95514.06;;;6.46;100.00
12624;BME280;6377;42.836;23.998;2023-03-03T10:05:37;95632.22;;;7.31;100.00
12624;BME280;6377;42.836;23.998;2023-03-03T10:08:27;95569.06;;;7.15;100.00
12624;BME280;6377;42.836;23.998;2023-03-03T10:11:17;95624.53;;;7.46;100.00
12624;BME280;6377;42.836;23.998;2023-03-03T10:19:40;95616.75;;;7.86;100.00
12624;BME280;6377;42.836;23.998;2023-03-03T10:22:19;95613.78;;;7.98;100.00
12624;BME280;6377;42.836;23.998;2023-03-03T10:25:03;95594.03;;;7.77;100.00
12624;BME280;6377;42.836;23.998;2023-03-03T10:27:49;95618.38;;;7.87;100.00
12624;BME280;6377;42.836;23.998;2023-03-03T10:30:24;95611.28;;;7.88;100.00
12624;BME280;6377;42.836;23.998;2023-03-03T10:33:00;95616.25;;;7.91;100.00
12624;BME280;6377;42.836;23.998;2023-03-03T10:35:45;95607.19;;;7.94;100.00
12624;BME280;6377;42.836;23.998;2023-03-03T10:38:30;95588.28;;;7.98;100.00
12624;BME280;6377;42.836;23.998;2023-03-03T10:41:10;95607.69;;;8.21;100.00
12624;BME280;6377;42.836;23.998;2023-03-03T10:44:01;95601.28;;;8.40;100.00
12624;BME280;6377;42.836;23.998;2023-03-03T10:46:39;95591.22;;;8.60;100.00
12624;BME280;6377;42.836;23.998;2023-03-03T10:49:25;95595.78;;;8.74;100.00
12624;BME280;6377;42.836;23.998;2023-03-03T10:52:04;95582.09;;;8.86;100.00
12624;BME280;6377;42.836;23.998;2023-03-03T10:54:47;95571.16;;;8.97;100.00
12624;BME280;6377;42.836;23.998;2023-03-03T10:57:24;95584.50;;;8.96;100.00
12624;BME280;6377;42.836;23.998;2023-03-03T11:00:08;95576.28;;;8.91;100.00
12624;BME280;6377;42.836;23.998;2023-03-03T11:02:51;95581.41;;;8.84;100.00
12624;BME280;6377;42.836;23.998;2023-03-03T11:05:35;95580.47;;;8.61;100.00
12624;BME280;6377;42.836;23.998;2023-03-03T11:08:08;95575.53;;;8.58;100.00
12624;BME280;6377;42.836;23.998;2023-03-03T11:10:47;95518.28;;;8.28;100.00
12624;BME280;6377;42.836;23.998;2023-03-03T11:13:21;95533.41;;;8.34;100.00
12624;BME280;6377;42.836;23.998;2023-03-03T11:16:05;95533.09;;;8.21;100.00
12624;BME280;6377;42.836;23.998;2023-03-03T11:18:53;95563.88;;;8.44;100.00
12624;BME280;6377;42.836;23.998;2023-03-03T11:21:31;95536.06;;;8.18;100.00
12624;BME280;6377;42.836;23.998;2023-03-03T11:24:22;95567.66;;;8.26;100.00
12624;BME280;6377;42.836;23.998;2023-03-03T11:27:08;95559.47;;;8.29;100.00
12624;BME280;6377;42.836;23.998;2023-03-03T11:29:51;95533.75;;;8.31;100.00
12624;BME280;6377;42.836;23.998;2023-03-03T11:32:27;95553.19;;;8.38;100.00
12624;BME280;6377;42.836;23.998;2023-03-03T11:35:12;95554.03;;;8.30;100.00
12624;BME280;6377;42.836;23.998;2023-03-03T11:37:49;95555.84;;;8.30;100.00
12624;BME280;6377;42.836;23.998;2023-03-03T11:40:20;95537.56;;;8.28;100.00
12624;BME280;6377;42.836;23.998;2023-03-03T11:42:57;95534.75;;;8.30;100.00
12624;BME280;6377;42.836;23.998;2023-03-03T11:45:31;95486.22;;;8.00;100.00
12624;BME280;6377;42.836;23.998;2023-03-03T11:48:06;95540.84;;;8.38;100.00
12624;BME280;6377;42.836;23.998;2023-03-03T11:50:37;95494.22;;;8.23;100.00
12624;BME280;6377;42.836;23.998;2023-03-03T11:53:28;95525.97;;;8.45;100.00
12624;BME280;6377;42.836;23.998;2023-03-03T11:56:02;95532.19;;;8.61;100.00
12624;BME280;6377;42.836;23.998;2023-03-03T11:58:39;95505.59;;;8.23;100.00
12624;BME280;6377;42.836;23.998;2023-03-03T12:01:18;95524.03;;;8.31;100.00
12624;BME280;6377;42.836;23.998;2023-03-03T12:03:52;95530.47;;;8.45;100.00
12624;BME280;6377;42.836;23.998;2023-03-03T12:06:32;95513.16;;;8.34;100.00
12624;BME280;6377;42.836;23.998;2023-03-03T12:09:30;95523.38;;;8.37;100.00
12624;BME280;6377;42.836;23.998;2023-03-03T12:12:04;95524.88;;;8.32;100.00
12624;BME280;6377;42.836;23.998;2023-03-03T12:14:45;95523.84;;;8.25;100.00
12624;BME280;6377;42.836;23.998;2023-03-03T12:17:31;95525.38;;;8.27;100.00
12624;BME280;6377;42.836;23.998;2023-03-03T12:20:06;95525.50;;;8.26;100.00
12624;BME280;6377;42.836;23.998;2023-03-03T12:22:41;95526.84;;;8.22;100.00
12624;BME280;6377;42.836;23.998;2023-03-03T12:25:29;95514.66;;;8.05;100.00
12624;BME280;6377;42.836;23.998;2023-03-03T12:28:04;95530.00;;;8.33;100.00
12624;BME280;6377;42.836;23.998;2023-03-03T12:30:45;95471.22;;;8.09;100.00
12624;BME280;6377;42.836;23.998;2023-03-03T12:33:22;95436.69;;;7.79;100.00
12624;BME280;6377;42.836;23.998;2023-03-03T12:36:01;95535.69;;;8.53;100.00
12624;BME280;6377;42.836;23.998;2023-03-03T12:38:37;95529.44;;;8.54;100.00
12624;BME280;6377;42.836;23.998;2023-03-03T12:41:13;95511.66;;;8.40;100.00
12624;BME280;6377;42.836;23.998;2023-03-03T12:43:55;95492.78;;;7.96;100.00
12624;BME280;6377;42.836;23.998;2023-03-03T12:46:32;95546.78;;;8.24;100.00
12624;BME280;6377;42.836;23.998;2023-03-03T12:49:01;95521.44;;;7.91;100.00
12624;BME280;6377;42.836;23.998;2023-03-03T12:51:39;95535.75;;;7.97;100.00
12624;BME280;6377;42.836;23.998;2023-03-03T12:54:26;95533.75;;;7.99;100.00
12624;BME280;6377;42.836;23.998;2023-03-03T12:57:06;95473.38;;;7.49;100.00
12624;BME280;6377;42.836;23.998;2023-03-03T12:59:39;95516.50;;;7.96;100.00
12624;BME280;6377;42.836;23.998;2023-03-03T13:02:32;95528.66;;;7.81;100.00
12624;BME280;6377;42.836;23.998;2023-03-03T13:05:14;95528.53;;;7.74;100.00
12624;BME280;6377;42.836;23.998;2023-03-03T13:07:45;95526.88;;;7.81;100.00
12624;BME280;6377;42.836;23.998;2023-03-03T13:10:19;95502.66;;;7.78;100.00
12624;BME280;6377;42.836;23.998;2023-03-03T13:12:53;95519.28;;;8.03;100.00
12624;BME280;6377;42.836;23.998;2023-03-03T13:15:26;95511.41;;;7.86;100.00
12624;BME280;6377;42.836;23.998;2023-03-03T13:18:08;95483.78;;;7.74;100.00
12624;BME280;6377;42.836;23.998;2023-03-03T13:20:44;95503.53;;;7.86;100.00
12624;BME280;6377;42.836;23.998;2023-03-03T13:23:25;95521.25;;;8.09;100.00
12624;BME280;6377;42.836;23.998;2023-03-03T13:26:00;95524.25;;;7.98;100.00
12624;BME280;6377;42.836;23.998;2023-03-03T13:28:33;95519.78;;;7.90;100.00
12624;BME280;6377;42.836;23.998;2023-03-03T13:31:17;95523.56;;;7.87;100.00
12624;BME280;6377;42.836;23.998;2023-03-03T13:33:51;95481.97;;;7.59;100.00
12624;BME280;6377;42.836;23.998;2023-03-03T13:36:22;95501.22;;;7.67;100.00
12624;BME280;6377;42.836;23.998;2023-03-03T13:38:53;95522.09;;;7.93;100.00